sensor_id;sensor_type;location;lat;lon;timestamp;P1;durP1;ratioP1;P2;durP2;ratioP2
10617;SDS011;5356;43.526;26.534;2023-03-26T00:00:39;5.35;;;3.10;;
10617;SDS011;5356;43.526;26.534;2023-03-26T00:03:08;4.97;;;2.95;;
10617;SDS011;5356;43.526;26.534;2023-03-26T00:05:37;4.82;;;3.40;;
10617;SDS011;5356;43.526;26.534;2023-03-26T00:08:04;4.70;;;3.05;;
10617;SDS011;5356;43.526;26.534;2023-03-26T00:10:33;4.93;;;3.33;;
10617;SDS011;5356;43.526;26.534;2023-03-26T00:12:59;4.38;;;3.25;;
10617;SDS011;5356;43.526;26.534;2023-03-26T00:15:24;5.90;;;3.22;;
10617;SDS011;5356;43.526;26.534;2023-03-26T00:17:50;4.15;;;2.90;;
10617;SDS011;5356;43.526;26.534;2023-03-26T00:20:18;4.22;;;2.97;;
10617;SDS011;5356;43.526;26.534;2023-03-26T00:22:44;5.57;;;3.58;;
10617;SDS011;5356;43.526;26.534;2023-03-26T00:25:09;4.07;;;3.05;;
10617;SDS011;5356;43.526;26.534;2023-03-26T00:27:35;4.57;;;3.00;;
10617;SDS011;5356;43.526;26.534;2023-03-26T00:30:01;4.80;;;3.13;;
10617;SDS011;5356;43.526;26.534;2023-03-26T00:32:27;3.97;;;2.88;;
10617;SDS011;5356;43.526;26.534;2023-03-26T00:34:54;3.55;;;2.47;;
10617;SDS011;5356;43.526;26.534;2023-03-26T00:37:20;3.47;;;2.40;;
10617;SDS011;5356;43.526;26.534;2023-03-26T00:39:53;3.78;;;2.60;;
10617;SDS011;5356;43.526;26.534;2023-03-26T00:42:23;3.03;;;2.53;;
10617;SDS011;5356;43.526;26.534;2023-03-26T00:44:49;2.80;;;2.05;;
10617;SDS011;5356;43.526;26.534;2023-03-26T00:47:19;3.33;;;2.08;;
10617;SDS011;5356;43.526;26.534;2023-03-26T00:49:45;3.60;;;2.75;;
10617;SDS011;5356;43.526;26.534;2023-03-26T00:52:13;3.83;;;2.25;;
10617;SDS011;5356;43.526;26.534;2023-03-26T00:54:42;3.97;;;2.28;;
10617;SDS011;5356;43.526;26.534;2023-03-26T00:57:12;3.30;;;2.05;;
10617;SDS011;5356;43.526;26.534;2023-03-26T00:59:38;2.70;;;1.77;;
10617;SDS011;5356;43.526;26.534;2023-03-26T01:02:05;2.75;;;1.85;;
10617;SDS011;5356;43.526;26.534;2023-03-26T01:04:35;2.38;;;1.40;;
10617;SDS011;5356;43.526;26.534;2023-03-26T01:07:11;2.97;;;1.85;;
10617;SDS011;5356;43.526;26.534;2023-03-26T01:09:42;4.18;;;1.77;;
10617;SDS011;5356;43.526;26.534;2023-03-26T01:12:14;2.83;;;1.60;;
10617;SDS011;5356;43.526;26.534;2023-03-26T01:14:43;2.30;;;1.55;;
10617;SDS011;5356;43.526;26.534;2023-03-26T01:17:10;3.75;;;1.60;;
10617;SDS011;5356;43.526;26.534;2023-03-26T01:19:57;4.78;;;1.83;;
10617;SDS011;5356;43.526;26.534;2023-03-26T01:22:35;8.32;;;2.22;;
10617;SDS011;5356;43.526;26.534;2023-03-26T01:25:02;2.58;;;1.70;;
10617;SDS011;5356;43.526;26.534;2023-03-26T01:27:36;2.08;;;1.80;;
10617;SDS011;5356;43.526;26.534;2023-03-26T01:32:51;1.92;;;1.60;;
10617;SDS011;5356;43.526;26.534;2023-03-26T01:38:30;2.72;;;1.60;;
10617;SDS011;5356;43.526;26.534;2023-03-26T01:41:09;1.70;;;1.50;;
10617;SDS011;5356;43.526;26.534;2023-03-26T01:46:23;3.78;;;1.42;;
10617;SDS011;5356;43.526;26.534;2023-03-26T01:48:50;2.13;;;1.60;;
10617;SDS011;5356;43.526;26.534;2023-03-26T01:51:29;1.85;;;1.50;;
10617;SDS011;5356;43.526;26.534;2023-03-26T01:53:56;6.65;;;2.33;;
10617;SDS011;5356;43.526;26.534;2023-03-26T02:04:41;2.22;;;2.03;;
10617;SDS011;5356;43.526;26.534;2023-03-26T02:12:43;2.08;;;1.85;;
10617;SDS011;5356;43.526;26.534;2023-03-26T02:15:09;2.88;;;2.08;;
10617;SDS011;5356;43.526;26.534;2023-03-26T02:17:35;2.80;;;2.20;;
10617;SDS011;5356;43.526;26.534;2023-03-26T02:20:05;1.95;;;1.75;;
10617;SDS011;5356;43.526;26.534;2023-03-26T02:22:39;2.55;;;1.90;;
10617;SDS011;5356;43.526;26.534;2023-03-26T02:25:10;1.60;;;1.50;;
10617;SDS011;5356;43.526;26.534;2023-03-26T02:27:41;2.90;;;1.95;;
10617;SDS011;5356;43.526;26.534;2023-03-26T02:30:08;2.33;;;1.83;;
10617;SDS011;5356;43.526;26.534;2023-03-26T02:32:36;3.33;;;2.13;;
10617;SDS011;5356;43.526;26.534;2023-03-26T02:35:03;3.33;;;2.17;;
10617;SDS011;5356;43.526;26.534;2023-03-26T02:37:29;2.22;;;2.03;;
10617;SDS011;5356;43.526;26.534;2023-03-26T02:39:58;3.47;;;2.30;;
10617;SDS011;5356;43.526;26.534;2023-03-26T02:42:26;2.95;;;2.53;;
10617;SDS011;5356;43.526;26.534;2023-03-26T02:44:52;3.70;;;2.15;;
10617;SDS011;5356;43.526;26.534;2023-03-26T02:47:17;4.03;;;2.15;;
10617;SDS011;5356;43.526;26.534;2023-03-26T02:49:43;2.85;;;2.55;;
10617;SDS011;5356;43.526;26.534;2023-03-26T02:52:08;3.47;;;2.55;;
10617;SDS011;5356;43.526;26.534;2023-03-26T02:54:34;4.22;;;2.70;;
10617;SDS011;5356;43.526;26.534;2023-03-26T02:57:01;2.67;;;2.38;;
10617;SDS011;5356;43.526;26.534;2023-03-26T02:59:27;3.35;;;2.70;;
10617;SDS011;5356;43.526;26.534;2023-03-26T03:01:52;2.83;;;2.50;;
10617;SDS011;5356;43.526;26.534;2023-03-26T03:04:18;3.60;;;2.17;;
10617;SDS011;5356;43.526;26.534;2023-03-26T03:06:44;3.63;;;2.33;;
10617;SDS011;5356;43.526;26.534;2023-03-26T03:09:10;4.10;;;2.30;;
10617;SDS011;5356;43.526;26.534;2023-03-26T03:11:36;4.95;;;3.03;;
10617;SDS011;5356;43.526;26.534;2023-03-26T03:14:03;2.45;;;2.25;;
10617;SDS011;5356;43.526;26.534;2023-03-26T03:16:29;3.60;;;2.42;;
10617;SDS011;5356;43.526;26.534;2023-03-26T03:18:55;2.97;;;2.42;;
10617;SDS011;5356;43.526;26.534;2023-03-26T03:21:21;2.97;;;2.65;;
10617;SDS011;5356;43.526;26.534;2023-03-26T03:23:51;3.40;;;2.88;;
10617;SDS011;5356;43.526;26.534;2023-03-26T03:26:18;4.68;;;2.42;;
10617;SDS011;5356;43.526;26.534;2023-03-26T03:28:47;3.88;;;2.55;;
10617;SDS011;5356;43.526;26.534;2023-03-26T03:31:14;4.32;;;3.13;;
10617;SDS011;5356;43.526;26.534;2023-03-26T03:33:40;4.20;;;2.55;;
10617;SDS011;5356;43.526;26.534;2023-03-26T03:36:08;3.13;;;2.20;;
10617;SDS011;5356;43.526;26.534;2023-03-26T03:38:38;4.82;;;2.88;;
10617;SDS011;5356;43.526;26.534;2023-03-26T03:41:04;3.70;;;2.70;;
10617;SDS011;5356;43.526;26.534;2023-03-26T03:43:31;4.18;;;2.75;;
10617;SDS011;5356;43.526;26.534;2023-03-26T03:45:57;4.85;;;2.80;;
10617;SDS011;5356;43.526;26.534;2023-03-26T03:48:23;6.70;;;3.08;;
10617;SDS011;5356;43.526;26.534;2023-03-26T03:50:48;3.58;;;2.60;;
10617;SDS011;5356;43.526;26.534;2023-03-26T03:53:14;2.78;;;2.47;;
10617;SDS011;5356;43.526;26.534;2023-03-26T03:55:43;4.38;;;2.45;;
10617;SDS011;5356;43.526;26.534;2023-03-26T03:58:25;5.55;;;2.40;;
10617;SDS011;5356;43.526;26.534;2023-03-26T04:00:52;4.60;;;2.80;;
10617;SDS011;5356;43.526;26.534;2023-03-26T04:03:28;4.80;;;2.42;;
10617;SDS011;5356;43.526;26.534;2023-03-26T04:05:54;3.95;;;2.50;;
10617;SDS011;5356;43.526;26.534;2023-03-26T04:08:20;3.55;;;2.22;;
10617;SDS011;5356;43.526;26.534;2023-03-26T04:10:47;3.05;;;1.92;;
10617;SDS011;5356;43.526;26.534;2023-03-26T04:13:13;4.43;;;2.28;;
10617;SDS011;5356;43.526;26.534;2023-03-26T04:15:39;4.30;;;2.78;;
10617;SDS011;5356;43.526;26.534;2023-03-26T04:18:06;3.58;;;2.20;;
10617;SDS011;5356;43.526;26.534;2023-03-26T04:20:37;3.85;;;2.55;;
10617;SDS011;5356;43.526;26.534;2023-03-26T04:23:10;4.10;;;2.80;;
10617;SDS011;5356;43.526;26.534;2023-03-26T04:25:40;4.95;;;2.70;;
10617;SDS011;5356;43.526;26.534;2023-03-26T04:28:07;4.45;;;2.75;;
10617;SDS011;5356;43.526;26.534;2023-03-26T04:30:35;2.95;;;2.28;;
10617;SDS011;5356;43.526;26.534;2023-03-26T04:33:02;6.38;;;4.07;;
10617;SDS011;5356;43.526;26.534;2023-03-26T04:35:30;4.30;;;3.10;;
10617;SDS011;5356;43.526;26.534;2023-03-26T04:38:00;3.90;;;2.40;;
10617;SDS011;5356;43.526;26.534;2023-03-26T04:40:30;3.42;;;2.53;;
10617;SDS011;5356;43.526;26.534;2023-03-26T04:42:59;3.20;;;2.40;;
10617;SDS011;5356;43.526;26.534;2023-03-26T04:45:26;6.18;;;2.15;;
10617;SDS011;5356;43.526;26.534;2023-03-26T04:47:54;3.33;;;2.65;;
10617;SDS011;5356;43.526;26.534;2023-03-26T04:50:22;3.20;;;2.22;;
10617;SDS011;5356;43.526;26.534;2023-03-26T04:52:48;3.20;;;2.05;;
10617;SDS011;5356;43.526;26.534;2023-03-26T04:58:03;3.95;;;3.00;;
10617;SDS011;5356;43.526;26.534;2023-03-26T05:00:29;3.47;;;3.10;;
10617;SDS011;5356;43.526;26.534;2023-03-26T05:02:55;3.40;;;2.30;;
10617;SDS011;5356;43.526;26.534;2023-03-26T05:05:23;2.45;;;2.10;;
10617;SDS011;5356;43.526;26.534;2023-03-26T05:07:50;5.88;;;5.38;;
10617;SDS011;5356;43.526;26.534;2023-03-26T05:10:16;2.47;;;2.15;;
10617;SDS011;5356;43.526;26.534;2023-03-26T05:12:41;2.40;;;2.03;;
10617;SDS011;5356;43.526;26.534;2023-03-26T05:15:07;5.43;;;3.72;;
10617;SDS011;5356;43.526;26.534;2023-03-26T05:17:35;3.58;;;2.13;;
10617;SDS011;5356;43.526;26.534;2023-03-26T05:20:06;2.40;;;1.98;;
10617;SDS011;5356;43.526;26.534;2023-03-26T05:22:53;2.38;;;1.73;;
10617;SDS011;5356;43.526;26.534;2023-03-26T05:25:19;2.30;;;2.10;;
10617;SDS011;5356;43.526;26.534;2023-03-26T05:27:45;3.90;;;2.88;;
10617;SDS011;5356;43.526;26.534;2023-03-26T05:30:15;3.88;;;3.05;;
10617;SDS011;5356;43.526;26.534;2023-03-26T05:32:43;3.65;;;3.33;;
10617;SDS011;5356;43.526;26.534;2023-03-26T05:35:08;4.60;;;3.75;;
10617;SDS011;5356;43.526;26.534;2023-03-26T05:37:34;2.60;;;2.22;;
10617;SDS011;5356;43.526;26.534;2023-03-26T05:40:01;3.20;;;2.22;;
10617;SDS011;5356;43.526;26.534;2023-03-26T05:42:28;5.00;;;3.33;;
10617;SDS011;5356;43.526;26.534;2023-03-26T05:44:53;3.28;;;2.40;;
10617;SDS011;5356;43.526;26.534;2023-03-26T05:47:19;8.02;;;4.63;;
10617;SDS011;5356;43.526;26.534;2023-03-26T05:49:44;2.20;;;1.80;;
10617;SDS011;5356;43.526;26.534;2023-03-26T05:52:11;2.33;;;1.85;;
10617;SDS011;5356;43.526;26.534;2023-03-26T05:54:39;3.55;;;2.00;;
10617;SDS011;5356;43.526;26.534;2023-03-26T05:57:05;6.65;;;5.20;;
10617;SDS011;5356;43.526;26.534;2023-03-26T05:59:30;4.45;;;4.05;;
10617;SDS011;5356;43.526;26.534;2023-03-26T06:01:56;3.78;;;2.53;;
10617;SDS011;5356;43.526;26.534;2023-03-26T06:04:21;5.18;;;3.13;;
10617;SDS011;5356;43.526;26.534;2023-03-26T06:06:47;3.47;;;2.65;;
10617;SDS011;5356;43.526;26.534;2023-03-26T06:09:12;4.18;;;3.22;;
10617;SDS011;5356;43.526;26.534;2023-03-26T06:11:38;4.00;;;3.20;;
10617;SDS011;5356;43.526;26.534;2023-03-26T06:14:05;3.33;;;2.88;;
10617;SDS011;5356;43.526;26.534;2023-03-26T06:16:31;4.32;;;3.17;;
10617;SDS011;5356;43.526;26.534;2023-03-26T06:18:57;6.30;;;4.22;;
10617;SDS011;5356;43.526;26.534;2023-03-26T06:21:22;5.03;;;4.28;;
10617;SDS011;5356;43.526;26.534;2023-03-26T06:23:51;4.05;;;3.22;;
10617;SDS011;5356;43.526;26.534;2023-03-26T06:26:17;5.22;;;3.45;;
10617;SDS011;5356;43.526;26.534;2023-03-26T06:28:42;6.03;;;3.85;;
10617;SDS011;5356;43.526;26.534;2023-03-26T06:31:08;5.38;;;4.05;;
10617;SDS011;5356;43.526;26.534;2023-03-26T06:33:33;4.35;;;3.47;;
10617;SDS011;5356;43.526;26.534;2023-03-26T06:35:59;4.70;;;3.85;;
10617;SDS011;5356;43.526;26.534;2023-03-26T06:38:25;5.72;;;3.78;;
10617;SDS011;5356;43.526;26.534;2023-03-26T06:40:50;5.40;;;3.38;;
10617;SDS011;5356;43.526;26.534;2023-03-26T06:43:16;6.25;;;3.53;;
10617;SDS011;5356;43.526;26.534;2023-03-26T06:45:41;3.70;;;3.22;;
10617;SDS011;5356;43.526;26.534;2023-03-26T06:48:07;4.43;;;3.03;;
10617;SDS011;5356;43.526;26.534;2023-03-26T06:50:32;4.50;;;3.20;;
10617;SDS011;5356;43.526;26.534;2023-03-26T06:52:58;4.80;;;3.47;;
10617;SDS011;5356;43.526;26.534;2023-03-26T06:55:24;4.88;;;2.80;;
10617;SDS011;5356;43.526;26.534;2023-03-26T06:57:50;4.90;;;3.53;;
10617;SDS011;5356;43.526;26.534;2023-03-26T07:00:18;4.82;;;2.85;;
10617;SDS011;5356;43.526;26.534;2023-03-26T07:02:44;4.22;;;2.67;;
10617;SDS011;5356;43.526;26.534;2023-03-26T07:05:10;4.07;;;3.25;;
10617;SDS011;5356;43.526;26.534;2023-03-26T07:07:36;6.10;;;3.92;;
10617;SDS011;5356;43.526;26.534;2023-03-26T07:10:03;5.47;;;3.50;;
10617;SDS011;5356;43.526;26.534;2023-03-26T07:12:28;4.97;;;2.85;;
10617;SDS011;5356;43.526;26.534;2023-03-26T07:14:54;4.15;;;3.15;;
10617;SDS011;5356;43.526;26.534;2023-03-26T07:17:20;4.82;;;3.38;;
10617;SDS011;5356;43.526;26.534;2023-03-26T07:19:45;4.03;;;2.95;;
10617;SDS011;5356;43.526;26.534;2023-03-26T07:22:18;4.80;;;3.17;;
10617;SDS011;5356;43.526;26.534;2023-03-26T07:24:45;5.68;;;2.50;;
10617;SDS011;5356;43.526;26.534;2023-03-26T07:41:16;3.55;;;1.98;;
10617;SDS011;5356;43.526;26.534;2023-03-26T07:46:32;6.85;;;2.65;;
10617;SDS011;5356;43.526;26.534;2023-03-26T07:48:59;6.00;;;3.42;;
10617;SDS011;5356;43.526;26.534;2023-03-26T07:51:26;4.07;;;2.58;;
10617;SDS011;5356;43.526;26.534;2023-03-26T07:53:52;4.47;;;2.92;;
10617;SDS011;5356;43.526;26.534;2023-03-26T07:56:19;2.95;;;2.30;;
10617;SDS011;5356;43.526;26.534;2023-03-26T07:59:05;3.83;;;2.42;;
10617;SDS011;5356;43.526;26.534;2023-03-26T08:07:07;4.95;;;2.47;;
10617;SDS011;5356;43.526;26.534;2023-03-26T08:12:47;4.13;;;2.70;;
10617;SDS011;5356;43.526;26.534;2023-03-26T08:17:58;2.42;;;1.80;;
10617;SDS011;5356;43.526;26.534;2023-03-26T08:20:38;6.68;;;2.00;;
10617;SDS011;5356;43.526;26.534;2023-03-26T08:23:15;2.90;;;1.90;;
10617;SDS011;5356;43.526;26.534;2023-03-26T08:31:30;2.75;;;2.13;;
10617;SDS011;5356;43.526;26.534;2023-03-26T08:34:00;7.00;;;2.30;;
10617;SDS011;5356;43.526;26.534;2023-03-26T08:36:26;2.63;;;1.75;;
10617;SDS011;5356;43.526;26.534;2023-03-26T08:38:52;4.28;;;2.10;;
10617;SDS011;5356;43.526;26.534;2023-03-26T08:52:59;1.85;;;1.30;;
10617;SDS011;5356;43.526;26.534;2023-03-26T08:56:14;2.60;;;1.58;;
10617;SDS011;5356;43.526;26.534;2023-03-26T09:22:15;2.35;;;1.52;;
10617;SDS011;5356;43.526;26.534;2023-03-26T09:33:37;3.10;;;2.03;;
10617;SDS011;5356;43.526;26.534;2023-03-26T09:36:39;5.10;;;1.92;;
10617;SDS011;5356;43.526;26.534;2023-03-26T09:44:55;5.22;;;2.00;;
10617;SDS011;5356;43.526;26.534;2023-03-26T10:01:45;2.08;;;1.65;;
10617;SDS011;5356;43.526;26.534;2023-03-26T10:10:24;4.28;;;1.90;;
10617;SDS011;5356;43.526;26.534;2023-03-26T10:15:53;2.22;;;1.23;;
10617;SDS011;5356;43.526;26.534;2023-03-26T10:21:28;3.35;;;1.38;;
10617;SDS011;5356;43.526;26.534;2023-03-26T10:24:10;3.63;;;1.15;;
10617;SDS011;5356;43.526;26.534;2023-03-26T10:37:03;2.05;;;0.98;;
10617;SDS011;5356;43.526;26.534;2023-03-26T10:54:10;1.67;;;1.15;;
10617;SDS011;5356;43.526;26.534;2023-03-26T10:56:47;3.40;;;1.52;;
10617;SDS011;5356;43.526;26.534;2023-03-26T10:59:15;1.73;;;1.30;;
10617;SDS011;5356;43.526;26.534;2023-03-26T11:04:44;1.88;;;1.02;;
10617;SDS011;5356;43.526;26.534;2023-03-26T11:12:47;1.23;;;1.13;;
10617;SDS011;5356;43.526;26.534;2023-03-26T11:15:26;7.32;;;4.88;;
10617;SDS011;5356;43.526;26.534;2023-03-26T11:23:39;1.90;;;1.08;;
10617;SDS011;5356;43.526;26.534;2023-03-26T11:26:37;1.10;;;1.05;;
10617;SDS011;5356;43.526;26.534;2023-03-26T11:34:31;5.32;;;1.67;;
10617;SDS011;5356;43.526;26.534;2023-03-26T11:37:19;2.00;;;1.13;;
10617;SDS011;5356;43.526;26.534;2023-03-26T11:40:17;1.38;;;1.10;;
10617;SDS011;5356;43.526;26.534;2023-03-26T11:42:49;1.67;;;1.55;;
10617;SDS011;5356;43.526;26.534;2023-03-26T11:45:21;0.95;;;0.80;;
10617;SDS011;5356;43.526;26.534;2023-03-26T11:47:50;2.38;;;1.10;;
10617;SDS011;5356;43.526;26.534;2023-03-26T11:50:30;2.80;;;2.13;;
10617;SDS011;5356;43.526;26.534;2023-03-26T11:53:09;1.58;;;0.90;;
10617;SDS011;5356;43.526;26.534;2023-03-26T11:55:40;1.00;;;0.90;;
10617;SDS011;5356;43.526;26.534;2023-03-26T11:58:19;0.75;;;0.65;;
10617;SDS011;5356;43.526;26.534;2023-03-26T12:00:48;1.50;;;0.88;;
10617;SDS011;5356;43.526;26.534;2023-03-26T12:03:18;1.00;;;0.90;;
10617;SDS011;5356;43.526;26.534;2023-03-26T12:05:50;1.55;;;0.90;;
10617;SDS011;5356;43.526;26.534;2023-03-26T12:08:37;1.15;;;1.05;;
10617;SDS011;5356;43.526;26.534;2023-03-26T12:11:07;1.77;;;1.20;;
10617;SDS011;5356;43.526;26.534;2023-03-26T12:13:44;1.48;;;1.15;;
10617;SDS011;5356;43.526;26.534;2023-03-26T12:16:17;1.67;;;1.58;;
10617;SDS011;5356;43.526;26.534;2023-03-26T12:18:45;2.67;;;1.40;;
10617;SDS011;5356;43.526;26.534;2023-03-26T12:21:21;3.03;;;1.23;;
10617;SDS011;5356;43.526;26.534;2023-03-26T12:23:57;3.25;;;1.30;;
10617;SDS011;5356;43.526;26.534;2023-03-26T12:26:34;2.08;;;1.13;;
10617;SDS011;5356;43.526;26.534;2023-03-26T12:29:04;1.17;;;0.90;;
10617;SDS011;5356;43.526;26.534;2023-03-26T12:31:55;1.73;;;1.10;;
10617;SDS011;5356;43.526;26.534;2023-03-26T12:34:21;2.85;;;1.10;;
10617;SDS011;5356;43.526;26.534;2023-03-26T12:36:54;1.30;;;1.13;;
10617;SDS011;5356;43.526;26.534;2023-03-26T12:39:32;2.10;;;1.05;;
10617;SDS011;5356;43.526;26.534;2023-03-26T12:42:11;1.67;;;0.82;;
10617;SDS011;5356;43.526;26.534;2023-03-26T12:44:50;1.15;;;0.70;;
10617;SDS011;5356;43.526;26.534;2023-03-26T12:47:21;1.25;;;1.02;;
10617;SDS011;5356;43.526;26.534;2023-03-26T12:49:51;1.48;;;0.90;;
10617;SDS011;5356;43.526;26.534;2023-03-26T12:52:54;1.05;;;0.90;;
10617;SDS011;5356;43.526;26.534;2023-03-26T12:55:35;2.45;;;1.20;;
10617;SDS011;5356;43.526;26.534;2023-03-26T12:58:31;1.23;;;1.00;;
10617;SDS011;5356;43.526;26.534;2023-03-26T13:09:55;1.77;;;0.93;;
10617;SDS011;5356;43.526;26.534;2023-03-26T13:13:29;2.20;;;1.00;;
10617;SDS011;5356;43.526;26.534;2023-03-26T13:16:16;1.10;;;0.98;;
10617;SDS011;5356;43.526;26.534;2023-03-26T13:18:58;0.65;;;0.65;;
10617;SDS011;5356;43.526;26.534;2023-03-26T13:21:36;1.25;;;0.90;;
10617;SDS011;5356;43.526;26.534;2023-03-26T13:24:34;0.93;;;0.85;;
10617;SDS011;5356;43.526;26.534;2023-03-26T13:27:25;0.68;;;0.68;;
10617;SDS011;5356;43.526;26.534;2023-03-26T13:40:48;0.65;;;0.65;;
10617;SDS011;5356;43.526;26.534;2023-03-26T13:45:55;1.00;;;0.90;;
10617;SDS011;5356;43.526;26.534;2023-03-26T13:48:23;4.22;;;0.80;;
10617;SDS011;5356;43.526;26.534;2023-03-26T13:51:09;2.10;;;0.77;;
10617;SDS011;5356;43.526;26.534;2023-03-26T13:56:34;1.00;;;0.90;;
10617;SDS011;5356;43.526;26.534;2023-03-26T13:59:07;4.00;;;2.40;;
10617;SDS011;5356;43.526;26.534;2023-03-26T14:01:43;1.10;;;0.93;;
10617;SDS011;5356;43.526;26.534;2023-03-26T14:04:32;4.10;;;1.55;;
10617;SDS011;5356;43.526;26.534;2023-03-26T14:07:08;2.28;;;1.00;;
10617;SDS011;5356;43.526;26.534;2023-03-26T14:14:48;2.60;;;1.20;;
10617;SDS011;5356;43.526;26.534;2023-03-26T14:17:27;2.65;;;1.50;;
10617;SDS011;5356;43.526;26.534;2023-03-26T14:20:20;4.80;;;1.45;;
10617;SDS011;5356;43.526;26.534;2023-03-26T14:36:21;1.80;;;1.00;;
10617;SDS011;5356;43.526;26.534;2023-03-26T14:42:06;1.55;;;1.20;;
10617;SDS011;5356;43.526;26.534;2023-03-26T14:47:27;1.77;;;1.30;;
10617;SDS011;5356;43.526;26.534;2023-03-26T15:11:38;6.28;;;1.52;;
10617;SDS011;5356;43.526;26.534;2023-03-26T15:34:15;1.90;;;1.40;;
10617;SDS011;5356;43.526;26.534;2023-03-26T15:39:52;2.25;;;1.23;;
10617;SDS011;5356;43.526;26.534;2023-03-26T15:45:29;1.33;;;1.00;;
10617;SDS011;5356;43.526;26.534;2023-03-26T15:48:33;1.50;;;1.10;;
10617;SDS011;5356;43.526;26.534;2023-03-26T15:50:52;1.88;;;1.33;;
10617;SDS011;5356;43.526;26.534;2023-03-26T15:56:17;1.40;;;1.10;;
10617;SDS011;5356;43.526;26.534;2023-03-26T16:15:54;4.57;;;3.10;;
10617;SDS011;5356;43.526;26.534;2023-03-26T16:18:41;8.10;;;4.45;;
10617;SDS011;5356;43.526;26.534;2023-03-26T16:26:40;16.50;;;9.05;;
10617;SDS011;5356;43.526;26.534;2023-03-26T16:29:22;13.38;;;6.75;;
10617;SDS011;5356;43.526;26.534;2023-03-26T16:40:25;5.68;;;3.30;;
10617;SDS011;5356;43.526;26.534;2023-03-26T16:47:57;5.10;;;3.22;;
10617;SDS011;5356;43.526;26.534;2023-03-26T16:50:48;6.38;;;3.97;;
10617;SDS011;5356;43.526;26.534;2023-03-26T16:53:33;7.78;;;4.22;;
10617;SDS011;5356;43.526;26.534;2023-03-26T16:56:12;8.50;;;3.92;;
10617;SDS011;5356;43.526;26.534;2023-03-26T16:58:47;9.18;;;4.40;;
10617;SDS011;5356;43.526;26.534;2023-03-26T17:01:39;7.38;;;4.72;;
10617;SDS011;5356;43.526;26.534;2023-03-26T17:04:12;8.20;;;5.25;;
10617;SDS011;5356;43.526;26.534;2023-03-26T17:12:32;22.63;;;10.65;;
10617;SDS011;5356;43.526;26.534;2023-03-26T17:26:02;22.45;;;12.45;;
10617;SDS011;5356;43.526;26.534;2023-03-26T17:37:08;13.25;;;7.05;;
10617;SDS011;5356;43.526;26.534;2023-03-26T17:42:34;17.10;;;9.77;;
10617;SDS011;5356;43.526;26.534;2023-03-26T17:45:02;14.73;;;9.35;;
10617;SDS011;5356;43.526;26.534;2023-03-26T17:55:37;5.25;;;3.40;;
10617;SDS011;5356;43.526;26.534;2023-03-26T17:58:27;7.97;;;3.97;;
10617;SDS011;5356;43.526;26.534;2023-03-26T18:01:41;7.78;;;4.30;;
10617;SDS011;5356;43.526;26.534;2023-03-26T18:03:56;11.30;;;5.90;;
10617;SDS011;5356;43.526;26.534;2023-03-26T18:17:38;10.82;;;6.30;;
10617;SDS011;5356;43.526;26.534;2023-03-26T18:20:18;11.95;;;6.10;;
10617;SDS011;5356;43.526;26.534;2023-03-26T18:22:45;8.38;;;5.68;;
10617;SDS011;5356;43.526;26.534;2023-03-26T18:25:17;10.35;;;4.85;;
10617;SDS011;5356;43.526;26.534;2023-03-26T18:27:58;7.57;;;4.68;;
10617;SDS011;5356;43.526;26.534;2023-03-26T18:30:26;7.70;;;4.13;;
10617;SDS011;5356;43.526;26.534;2023-03-26T18:32:56;11.05;;;3.72;;
10617;SDS011;5356;43.526;26.534;2023-03-26T18:35:39;7.20;;;3.67;;
10617;SDS011;5356;43.526;26.534;2023-03-26T18:38:09;4.55;;;3.33;;
10617;SDS011;5356;43.526;26.534;2023-03-26T18:40:41;4.60;;;3.45;;
10617;SDS011;5356;43.526;26.534;2023-03-26T18:43:15;6.72;;;3.17;;
10617;SDS011;5356;43.526;26.534;2023-03-26T18:45:43;6.55;;;3.53;;
10617;SDS011;5356;43.526;26.534;2023-03-26T18:48:15;9.85;;;3.75;;
10617;SDS011;5356;43.526;26.534;2023-03-26T18:50:44;4.80;;;2.78;;
10617;SDS011;5356;43.526;26.534;2023-03-26T18:53:58;6.65;;;3.50;;
10617;SDS011;5356;43.526;26.534;2023-03-26T18:56:41;6.68;;;4.28;;
10617;SDS011;5356;43.526;26.534;2023-03-26T18:59:16;6.53;;;3.50;;
10617;SDS011;5356;43.526;26.534;2023-03-26T19:01:44;8.00;;;4.07;;
10617;SDS011;5356;43.526;26.534;2023-03-26T19:04:12;8.68;;;4.13;;
10617;SDS011;5356;43.526;26.534;2023-03-26T19:06:39;8.40;;;4.25;;
10617;SDS011;5356;43.526;26.534;2023-03-26T19:09:07;11.15;;;7.00;;
10617;SDS011;5356;43.526;26.534;2023-03-26T19:11:37;10.80;;;7.07;;
10617;SDS011;5356;43.526;26.534;2023-03-26T19:14:17;14.70;;;7.60;;
10617;SDS011;5356;43.526;26.534;2023-03-26T19:16:44;14.35;;;8.27;;
10617;SDS011;5356;43.526;26.534;2023-03-26T19:19:17;13.68;;;7.82;;
10617;SDS011;5356;43.526;26.534;2023-03-26T19:21:47;16.55;;;9.05;;
10617;SDS011;5356;43.526;26.534;2023-03-26T19:24:12;9.57;;;5.82;;
10617;SDS011;5356;43.526;26.534;2023-03-26T19:26:40;4.93;;;3.45;;
10617;SDS011;5356;43.526;26.534;2023-03-26T19:29:08;7.72;;;3.08;;
10617;SDS011;5356;43.526;26.534;2023-03-26T19:31:38;4.88;;;2.75;;
10617;SDS011;5356;43.526;26.534;2023-03-26T19:36:49;5.13;;;3.60;;
10617;SDS011;5356;43.526;26.534;2023-03-26T19:39:40;11.20;;;5.07;;
10617;SDS011;5356;43.526;26.534;2023-03-26T19:42:12;10.32;;;6.57;;
10617;SDS011;5356;43.526;26.534;2023-03-26T19:44:40;13.93;;;7.63;;
10617;SDS011;5356;43.526;26.534;2023-03-26T19:57:36;10.88;;;4.97;;
10617;SDS011;5356;43.526;26.534;2023-03-26T20:00:05;8.07;;;4.10;;
10617;SDS011;5356;43.526;26.534;2023-03-26T20:02:37;5.95;;;3.85;;
10617;SDS011;5356;43.526;26.534;2023-03-26T20:05:22;5.88;;;3.38;;
10617;SDS011;5356;43.526;26.534;2023-03-26T20:07:55;7.47;;;3.70;;
10617;SDS011;5356;43.526;26.534;2023-03-26T20:10:23;5.53;;;3.50;;
10617;SDS011;5356;43.526;26.534;2023-03-26T20:12:50;8.32;;;4.05;;
10617;SDS011;5356;43.526;26.534;2023-03-26T20:15:22;6.63;;;3.35;;
10617;SDS011;5356;43.526;26.534;2023-03-26T20:17:49;4.43;;;3.70;;
10617;SDS011;5356;43.526;26.534;2023-03-26T20:20:20;6.75;;;3.47;;
10617;SDS011;5356;43.526;26.534;2023-03-26T20:22:49;12.32;;;4.28;;
10617;SDS011;5356;43.526;26.534;2023-03-26T20:25:18;7.82;;;4.40;;
10617;SDS011;5356;43.526;26.534;2023-03-26T20:27:47;10.60;;;5.50;;
10617;SDS011;5356;43.526;26.534;2023-03-26T20:30:13;10.70;;;5.13;;
10617;SDS011;5356;43.526;26.534;2023-03-26T20:32:40;16.98;;;6.20;;
10617;SDS011;5356;43.526;26.534;2023-03-26T20:35:24;20.63;;;8.05;;
10617;SDS011;5356;43.526;26.534;2023-03-26T20:37:57;13.63;;;5.90;;
10617;SDS011;5356;43.526;26.534;2023-03-26T20:40:22;13.70;;;5.75;;
10617;SDS011;5356;43.526;26.534;2023-03-26T20:42:48;10.70;;;5.00;;
10617;SDS011;5356;43.526;26.534;2023-03-26T20:45:14;13.70;;;4.63;;
10617;SDS011;5356;43.526;26.534;2023-03-26T20:47:43;13.63;;;4.35;;
10617;SDS011;5356;43.526;26.534;2023-03-26T20:50:13;12.82;;;3.90;;
10617;SDS011;5356;43.526;26.534;2023-03-26T20:52:40;8.35;;;3.95;;
10617;SDS011;5356;43.526;26.534;2023-03-26T20:55:14;6.85;;;4.20;;
10617;SDS011;5356;43.526;26.534;2023-03-26T20:57:41;7.80;;;3.70;;
10617;SDS011;5356;43.526;26.534;2023-03-26T21:00:08;5.88;;;3.90;;
10617;SDS011;5356;43.526;26.534;2023-03-26T21:02:43;6.82;;;2.90;;
10617;SDS011;5356;43.526;26.534;2023-03-26T21:05:15;10.95;;;5.45;;
10617;SDS011;5356;43.526;26.534;2023-03-26T21:07:46;7.05;;;4.43;;
10617;SDS011;5356;43.526;26.534;2023-03-26T21:10:14;6.45;;;3.78;;
10617;SDS011;5356;43.526;26.534;2023-03-26T21:12:49;8.90;;;5.03;;
10617;SDS011;5356;43.526;26.534;2023-03-26T21:15:21;7.05;;;3.90;;
10617;SDS011;5356;43.526;26.534;2023-03-26T21:17:52;6.15;;;3.63;;
10617;SDS011;5356;43.526;26.534;2023-03-26T21:28:46;8.20;;;4.00;;
10617;SDS011;5356;43.526;26.534;2023-03-26T21:31:18;18.77;;;9.85;;
10617;SDS011;5356;43.526;26.534;2023-03-26T21:33:46;16.00;;;7.20;;
10617;SDS011;5356;43.526;26.534;2023-03-26T21:36:15;8.40;;;4.05;;